Time;durP1;ratioP1;P1;durP2;ratioP2;P2;SDS_P1;SDS_P2;PMS_P1;PMS_P2;Temp;Humidity;BMP_temperature;BMP_pressure;BME280_temperature;BME280_humidity;BME280_pressure;Samples;Min_cycle;Max_cycle;Signal;HPM_P1;HPM_P2
2023/10/16 00:00:29;;;;;;;5.90;1.80;;;6.00;99.90;;;;;;5088514;28;20452;-50
2023/10/16 00:03:02;;;;;;;5.83;1.50;;;6.10;99.90;;;;;;5083454;28;20449;-55
2023/10/16 00:05:33;;;;;;;6.93;1.70;;;6.10;99.90;;;;;;5082982;28;20451;-49
2023/10/16 00:08:08;;;;;;;7.57;1.73;;;6.10;99.90;;;;;;5087557;28;20477;-49
2023/10/16 00:10:36;;;;;;;9.63;2.20;;;6.10;99.90;;;;;;5086423;28;20458;-50
2023/10/16 00:13:10;;;;;;;5.17;1.90;;;6.10;99.90;;;;;;5087569;28;20434;-52
2023/10/16 00:15:40;;;;;;;9.33;1.80;;;6.10;99.90;;;;;;5081973;28;20443;-60
2023/10/16 00:18:16;;;;;;;5.90;1.40;;;6.00;99.90;;;;;;5081792;28;20448;-53
2023/10/16 00:20:41;;;;;;;8.70;1.80;;;6.00;99.90;;;;;;5081512;28;20452;-49
2023/10/16 00:23:10;;;;;;;4.37;1.83;;;6.00;99.90;;;;;;5081836;28;20530;-49
2023/10/16 00:25:38;;;;;;;5.33;1.80;;;6.00;99.90;;;;;;5080914;28;20325;-52
2023/10/16 00:28:05;;;;;;;10.20;2.47;;;6.00;99.90;;;;;;5080935;28;20474;-50
2023/10/16 00:30:31;;;;;;;4.90;1.90;;;6.00;99.90;;;;;;5079916;28;20472;-49
2023/10/16 00:32:58;;;;;;;5.80;1.87;;;6.10;99.90;;;;;;5083581;28;20463;-49
2023/10/16 00:35:24;;;;;;;10.87;1.80;;;6.10;99.90;;;;;;5080246;28;20207;-49
2023/10/16 00:37:50;;;;;;;6.20;1.50;;;6.10;99.90;;;;;;5081348;28;20442;-49
2023/10/16 00:40:31;;;;;;;7.83;1.50;;;6.20;99.90;;;;;;5083078;28;21015;-49
2023/10/16 00:42:59;;;;;;;11.23;1.67;;;6.30;99.90;;;;;;5081715;28;20442;-49
2023/10/16 00:45:24;;;;;;;11.30;1.70;;;6.30;99.90;;;;;;5081113;28;20441;-51
2023/10/16 00:47:50;;;;;;;10.00;1.77;;;6.30;99.90;;;;;;5084623;28;20435;-49
2023/10/16 00:50:18;;;;;;;3.00;1.60;;;6.30;99.90;;;;;;5081992;28;20195;-50
2023/10/16 00:52:43;;;;;;;3.37;1.23;;;6.40;99.90;;;;;;5078913;28;20201;-50
2023/10/16 00:55:11;;;;;;;7.03;1.20;;;6.40;99.90;;;;;;5080277;28;20466;-50
2023/10/16 00:57:42;;;;;;;6.17;1.30;;;6.40;99.90;;;;;;5082574;28;20202;-50
2023/10/16 01:00:12;;;;;;;10.10;2.00;;;6.40;99.90;;;;;;5080575;28;20601;-50
2023/10/16 01:02:40;;;;;;;21.00;2.83;;;6.40;99.90;;;;;;5080212;28;20590;-50
2023/10/16 01:05:07;;;;;;;9.53;3.07;;;6.40;99.90;;;;;;5082325;28;20583;-51
2023/10/16 01:07:36;;;;;;;14.77;3.23;;;6.50;99.90;;;;;;5081065;28;20447;-49
2023/10/16 01:10:02;;;;;;;9.90;2.57;;;6.40;99.90;;;;;;5083390;28;20459;-59
2023/10/16 01:12:28;;;;;;;5.13;1.77;;;6.40;99.90;;;;;;5077157;28;20478;-49
2023/10/16 01:14:54;;;;;;;7.67;2.37;;;6.40;99.90;;;;;;5081198;28;20515;-50
2023/10/16 01:17:29;;;;;;;6.73;2.20;;;6.40;99.90;;;;;;5084088;28;20211;-50
2023/10/16 01:19:56;;;;;;;9.93;2.10;;;6.40;99.90;;;;;;5084923;28;20203;-49
2023/10/16 01:22:22;;;;;;;8.50;2.17;;;6.40;99.90;;;;;;5085017;28;20554;-53
2023/10/16 01:24:48;;;;;;;10.30;2.13;;;6.30;99.90;;;;;;5085388;28;20470;-49
2023/10/16 01:27:25;;;;;;;10.53;2.37;;;6.30;99.90;;;;;;5084801;28;20439;-49
2023/10/16 01:29:52;;;;;;;5.20;2.70;;;6.30;99.90;;;;;;5083351;28;20213;-49
2023/10/16 01:32:18;;;;;;;12.20;3.43;;;6.30;99.90;;;;;;5084792;28;20783;-51
2023/10/16 01:34:46;;;;;;;8.77;2.90;;;6.30;99.90;;;;;;5085722;28;20442;-52
2023/10/16 01:37:17;;;;;;;8.43;3.53;;;6.30;99.90;;;;;;5085602;28;20191;-49
2023/10/16 01:39:49;;;;;;;15.70;5.13;;;6.30;99.90;;;;;;5085611;28;20448;-49
2023/10/16 01:42:16;;;;;;;20.20;4.70;;;6.30;99.90;;;;;;5086257;28;20460;-49
2023/10/16 01:44:43;;;;;;;15.03;3.07;;;6.30;99.90;;;;;;5084551;28;20498;-49
2023/10/16 01:47:13;;;;;;;9.27;2.30;;;6.40;99.90;;;;;;5083989;28;20813;-50
2023/10/16 01:49:39;;;;;;;6.50;2.40;;;6.40;99.90;;;;;;5085136;28;20527;-49
2023/10/16 01:52:07;;;;;;;6.50;1.87;;;6.40;99.90;;;;;;5084648;28;20446;-60
2023/10/16 01:54:37;;;;;;;7.90;2.33;;;6.40;99.90;;;;;;5085270;28;20490;-49
2023/10/16 01:57:10;;;;;;;7.30;2.40;;;6.40;99.90;;;;;;5083482;28;20946;-49
2023/10/16 01:59:42;;;;;;;4.10;2.00;;;6.50;99.90;;;;;;5085451;28;20499;-53
2023/10/16 02:02:09;;;;;;;7.30;2.40;;;6.50;99.90;;;;;;5085186;28;20502;-49
2023/10/16 02:04:36;;;;;;;7.50;1.60;;;6.50;99.90;;;;;;5085308;28;20441;-49
2023/10/16 02:07:02;;;;;;;19.13;4.17;;;6.50;99.90;;;;;;5084235;28;20430;-50
2023/10/16 02:09:31;;;;;;;9.17;2.90;;;6.50;99.90;;;;;;5087035;28;20464;-51
2023/10/16 02:11:59;;;;;;;6.30;2.17;;;6.40;99.90;;;;;;5082008;28;20202;-57
2023/10/16 02:14:25;;;;;;;7.33;2.50;;;6.40;99.90;;;;;;5084803;28;21012;-49
2023/10/16 02:16:51;;;;;;;7.87;2.40;;;6.40;99.90;;;;;;5082540;28;20526;-50
2023/10/16 02:19:17;;;;;;;9.70;2.50;;;6.40;99.90;;;;;;5083790;28;20228;-50
2023/10/16 02:21:43;;;;;;;6.00;2.60;;;6.30;99.90;;;;;;5086133;28;20460;-49
2023/10/16 02:24:11;;;;;;;9.53;2.00;;;6.30;99.90;;;;;;5078879;28;20198;-50
2023/10/16 02:26:55;;;;;;;7.57;2.57;;;6.30;99.90;;;;;;5081802;28;20446;-49
2023/10/16 02:29:24;;;;;;;9.00;2.50;;;6.30;99.90;;;;;;5084036;28;20465;-47
2023/10/16 02:31:50;;;;;;;8.17;3.07;;;6.30;99.90;;;;;;5084065;28;20437;-52
2023/10/16 02:34:22;;;;;;;5.97;2.73;;;6.30;99.90;;;;;;5084596;28;20461;-49
2023/10/16 02:36:50;;;;;;;11.20;3.70;;;6.30;99.90;;;;;;5083546;28;20492;-48
2023/10/16 02:39:35;;;;;;;14.80;3.83;;;6.30;99.90;;;;;;5083424;28;21050;-48
2023/10/16 02:42:01;;;;;;;7.20;3.10;;;6.30;99.90;;;;;;5082005;28;20441;-53
2023/10/16 02:44:27;;;;;;;7.00;2.77;;;6.40;99.90;;;;;;5088998;28;20842;-48
2023/10/16 02:46:53;;;;;;;6.83;2.40;;;6.30;99.90;;;;;;5082368;28;20431;-50
2023/10/16 02:49:22;;;;;;;7.03;2.30;;;6.30;99.90;;;;;;5084189;28;20247;-48
2023/10/16 02:51:47;;;;;;;7.13;2.17;;;6.40;99.90;;;;;;5083297;28;20442;-47
2023/10/16 02:54:13;;;;;;;7.63;2.40;;;6.40;99.90;;;;;;5082909;28;20426;-51
2023/10/16 02:56:42;;;;;;;9.30;2.53;;;6.40;99.90;;;;;;5082686;28;20210;-48
2023/10/16 02:59:08;;;;;;;6.70;2.70;;;6.40;99.90;;;;;;5081494;28;20512;-55
2023/10/16 03:01:34;;;;;;;6.10;2.27;;;6.30;99.90;;;;;;5084850;28;20542;-48
2023/10/16 03:03:59;;;;;;;9.67;2.40;;;6.40;99.90;;;;;;5080707;28;20505;-48
2023/10/16 03:06:28;;;;;;;7.80;2.30;;;6.30;99.90;;;;;;5084623;28;20185;-49
2023/10/16 03:09:04;;;;;;;5.57;2.60;;;6.30;99.90;;;;;;5082298;28;20285;-48
2023/10/16 03:11:30;;;;;;;4.53;2.63;;;6.30;99.90;;;;;;5080815;28;20457;-48
2023/10/16 03:13:59;;;;;;;6.87;2.80;;;6.30;99.90;;;;;;5082841;28;21608;-48
2023/10/16 03:16:26;;;;;;;8.63;2.63;;;6.30;99.90;;;;;;5081961;28;20192;-48
2023/10/16 03:19:02;;;;;;;7.23;2.40;;;6.30;99.90;;;;;;5084804;28;20438;-56
2023/10/16 03:21:28;;;;;;;10.97;2.90;;;6.30;99.90;;;;;;5085050;28;20540;-48
2023/10/16 03:23:54;;;;;;;13.27;3.47;;;6.30;99.90;;;;;;5082116;28;20530;-49
2023/10/16 03:28:46;;;;;;;11.77;3.20;;;6.30;99.90;;;;;;5086239;28;20458;-50
2023/10/16 03:31:12;;;;;;;14.63;3.60;;;6.40;99.90;;;;;;5080458;28;20823;-50
2023/10/16 03:33:38;;;;;;;9.80;3.20;;;6.40;99.90;;;;;;5084361;28;20269;-50
2023/10/16 03:36:04;;;;;;;11.20;3.17;;;6.40;99.90;;;;;;5084111;28;20189;-49
2023/10/16 03:38:36;;;;;;;4.10;2.63;;;6.40;99.90;;;;;;5083034;28;20442;-49
2023/10/16 03:41:04;;;;;;;4.23;2.90;;;6.30;99.90;;;;;;5078736;28;20184;-48
2023/10/16 03:43:30;;;;;;;9.70;3.73;;;6.30;99.90;;;;;;5081369;28;20806;-48
2023/10/16 03:45:55;;;;;;;11.63;3.10;;;6.30;99.90;;;;;;5083884;28;20445;-49
2023/10/16 03:48:21;;;;;;;5.87;3.00;;;6.30;99.90;;;;;;5081372;28;20695;-48
2023/10/16 03:50:47;;;;;;;11.30;3.40;;;6.30;99.90;;;;;;5084022;28;20201;-53
2023/10/16 03:53:13;;;;;;;10.87;3.10;;;6.20;99.90;;;;;;5077027;28;20453;-49
2023/10/16 03:55:47;;;;;;;10.63;3.60;;;6.20;99.90;;;;;;5084249;28;20638;-49
2023/10/16 03:58:14;;;;;;;13.50;3.00;;;6.30;99.90;;;;;;5082642;28;20186;-49
2023/10/16 04:00:52;;;;;;;10.63;3.57;;;6.30;99.90;;;;;;5079952;28;20885;-49
2023/10/16 04:03:22;;;;;;;11.33;3.87;;;6.40;99.90;;;;;;5083380;28;20446;-49
2023/10/16 04:05:49;;;;;;;14.73;3.33;;;6.40;99.90;;;;;;5082638;28;20908;-49
2023/10/16 04:08:23;;;;;;;8.47;3.67;;;6.40;99.90;;;;;;5082380;28;20459;-49
2023/10/16 04:10:50;;;;;;;13.93;3.80;;;6.40;99.90;;;;;;5080483;28;20490;-50
2023/10/16 04:13:19;;;;;;;12.93;3.70;;;6.50;99.90;;;;;;5082016;28;20428;-52
2023/10/16 04:15:59;;;;;;;12.60;3.90;;;6.50;99.90;;;;;;5080883;28;21238;-49
2023/10/16 04:53:11;;;;;;;12.47;4.80;;;6.80;99.90;;;;;;5081223;28;20452;-48
2023/10/16 05:00:57;;;;;;;18.40;5.33;;;6.90;99.90;;;;;;5083948;28;20441;-50
2023/10/16 06:14:47;;;;;;;17.97;8.97;;;7.40;99.90;;;;;;5083062;28;20441;-49
2023/10/16 06:17:15;;;;;;;14.30;8.40;;;7.50;99.90;;;;;;5083517;28;21032;-49
2023/10/16 06:19:44;;;;;;;17.20;8.37;;;7.60;99.90;;;;;;5084688;28;20205;-49
2023/10/16 06:22:11;;;;;;;16.30;8.97;;;7.50;99.90;;;;;;5080714;28;20449;-49
2023/10/16 06:24:38;;;;;;;14.97;9.80;;;7.60;99.90;;;;;;5084778;28;20525;-49
2023/10/16 06:27:12;;;;;;;15.10;9.57;;;7.70;99.90;;;;;;5082335;28;20451;-49
2023/10/16 06:29:49;;;;;;;15.53;9.87;;;7.70;99.90;;;;;;5084343;28;20473;-54
2023/10/16 06:32:18;;;;;;;16.77;9.83;;;7.70;99.90;;;;;;5084620;28;20526;-49
2023/10/16 06:34:57;;;;;;;19.13;10.73;;;7.70;99.90;;;;;;5083803;28;20447;-50
2023/10/16 06:37:28;;;;;;;15.93;9.10;;;7.80;99.90;;;;;;5082683;28;20438;-49
2023/10/16 06:39:58;;;;;;;17.53;8.73;;;7.80;99.90;;;;;;5083710;28;20434;-50
2023/10/16 06:42:24;;;;;;;15.47;9.60;;;7.90;99.90;;;;;;5081927;28;20467;-49
2023/10/16 06:44:54;;;;;;;13.33;9.20;;;7.90;99.90;;;;;;5083095;28;20551;-50
2023/10/16 06:47:23;;;;;;;17.23;10.33;;;7.90;99.90;;;;;;5084651;28;20439;-54
2023/10/16 06:49:50;;;;;;;16.80;8.07;;;7.90;99.90;;;;;;5084046;28;20473;-49
2023/10/16 06:52:17;;;;;;;17.43;9.60;;;7.90;99.90;;;;;;5081914;28;20438;-49
2023/10/16 06:54:44;;;;;;;15.80;9.00;;;7.90;99.90;;;;;;5083018;28;20491;-50
2023/10/16 06:57:13;;;;;;;12.10;9.30;;;8.00;99.90;;;;;;5083469;28;20447;-49
2023/10/16 06:59:44;;;;;;;14.70;9.20;;;8.10;99.90;;;;;;5080733;28;20520;-51
2023/10/16 07:02:16;;;;;;;16.67;9.10;;;8.20;99.90;;;;;;5083781;28;20438;-48
2023/10/16 07:04:44;;;;;;;16.93;8.83;;;8.20;99.90;;;;;;5082024;28;20442;-48
2023/10/16 07:07:14;;;;;;;16.30;7.80;;;8.30;99.90;;;;;;5082888;28;20437;-53
2023/10/16 07:09:47;;;;;;;12.30;7.13;;;8.40;99.90;;;;;;5084094;28;20475;-49
2023/10/16 07:12:17;;;;;;;15.33;7.37;;;8.50;99.90;;;;;;5082803;28;20449;-49
2023/10/16 07:15:01;;;;;;;10.63;7.87;;;8.70;99.90;;;;;;5085359;28;20441;-52
2023/10/16 07:17:28;;;;;;;12.30;8.30;;;8.80;99.90;;;;;;5091714;28;20492;-48
2023/10/16 07:19:59;;;;;;;15.43;8.13;;;8.90;99.90;;;;;;5091544;28;20476;-48
2023/10/16 07:22:31;;;;;;;17.40;7.33;;;9.00;99.90;;;;;;5091104;28;20784;-48
2023/10/16 07:27:47;;;;;;;10.37;7.00;;;8.90;99.90;;;;;;5091701;28;20405;-48
2023/10/16 07:30:22;;;;;;;13.43;7.00;;;8.90;99.90;;;;;;5091418;28;20481;-49
2023/10/16 07:32:51;;;;;;;9.70;6.30;;;8.90;99.90;;;;;;5092286;28;20229;-48
2023/10/16 07:35:21;;;;;;;9.83;6.03;;;9.00;99.90;;;;;;5092448;28;20422;-48
2023/10/16 07:37:48;;;;;;;13.70;6.60;;;9.00;99.90;;;;;;5092551;28;20796;-49
2023/10/16 07:40:15;;;;;;;12.70;6.27;;;9.00;99.90;;;;;;5092201;28;20422;-48
2023/10/16 07:42:41;;;;;;;7.00;6.30;;;9.00;99.90;;;;;;5093797;28;20423;-49
2023/10/16 07:45:08;;;;;;;9.73;6.60;;;9.10;99.90;;;;;;5092300;28;20415;-48
2023/10/16 07:47:33;;;;;;;10.10;6.60;;;9.10;99.90;;;;;;5092766;28;20417;-48
2023/10/16 07:50:00;;;;;;;12.97;6.10;;;9.10;99.90;;;;;;5092466;28;20477;-49
2023/10/16 07:52:28;;;;;;;11.93;6.43;;;9.20;99.90;;;;;;5092139;28;20568;-48
2023/10/16 07:54:54;;;;;;;10.67;6.10;;;9.20;77.50;;;;;;5092400;28;20419;-48
2023/10/16 07:57:21;;;;;;;8.97;6.30;;;9.30;99.90;;;;;;5091786;28;20505;-49
2023/10/16 07:59:47;;;;;;;9.50;6.00;;;9.40;87.80;;;;;;5092361;28;20618;-49
2023/10/16 08:02:17;;;;;;;12.17;6.47;;;9.50;20.20;;;;;;5092131;28;20508;-49
2023/10/16 08:04:43;;;;;;;7.60;5.83;;;9.60;39.90;;;;;;5092286;28;20878;-49
2023/10/16 08:07:18;;;;;;;8.00;6.20;;;9.70;1.00;;;;;;5091951;28;20415;-50
2023/10/16 08:09:57;;;;;;;11.67;6.83;;;9.70;1.00;;;;;;5092141;28;20467;-49
2023/10/16 08:12:35;;;;;;;14.07;7.20;;;9.70;1.00;;;;;;5092191;28;20416;-49
2023/10/16 08:15:14;;;;;;;9.00;6.40;;;9.80;1.00;;;;;;5092221;28;20429;-49
2023/10/16 08:17:40;;;;;;;8.73;6.40;;;9.80;1.00;;;;;;5092485;28;20748;-49
2023/10/16 08:20:08;;;;;;;11.50;5.90;;;9.90;1.00;;;;;;5091571;28;20437;-49
2023/10/16 08:22:33;;;;;;;8.30;5.60;;;9.90;1.00;;;;;;5092152;28;20211;-49
2023/10/16 08:24:59;;;;;;;8.63;5.70;;;9.90;1.00;;;;;;5092316;28;21195;-48
2023/10/16 08:28:19;;;;;;;9.80;5.83;;;10.00;1.00;;;;;;5094028;28;20176;-49
2023/10/16 08:30:49;;;;;;;6.53;5.67;;;10.00;1.00;;;;;;5089757;28;20236;-49
2023/10/16 08:33:18;;;;;;;11.53;5.70;;;10.10;1.00;;;;;;5095786;28;20467;-49
2023/10/16 08:35:45;;;;;;;7.17;5.23;;;10.10;1.00;;;;;;5095952;28;20434;-49
2023/10/16 08:38:14;;;;;;;8.97;5.37;;;10.10;99.90;;;;;;5096029;28;20754;-49
2023/10/16 08:40:44;;;;;;;5.50;4.50;;;10.10;1.00;;;;;;5095649;28;20421;-50
2023/10/16 08:43:10;;;;;;;11.40;4.60;;;10.10;99.90;;;;;;5095576;28;20433;-50
2023/10/16 08:45:48;;;;;;;8.23;4.27;;;10.10;99.90;;;;;;5096267;28;20429;-49
2023/10/16 08:48:17;;;;;;;6.50;4.07;;;10.20;99.90;;;;;;5096045;28;20437;-49
2023/10/16 08:50:52;;;;;;;8.43;3.60;;;10.10;99.90;;;;;;5094981;28;20429;-49
2023/10/16 08:53:30;;;;;;;8.57;4.50;;;10.10;99.90;;;;;;5095790;28;20893;-49
2023/10/16 08:56:07;;;;;;;5.77;4.30;;;10.30;99.90;;;;;;5095858;28;20448;-50
2023/10/16 08:58:44;;;;;;;8.40;3.90;;;10.70;99.90;;;;;;5095027;28;20421;-49
2023/10/16 09:01:12;;;;;;;12.17;4.30;;;11.00;71.20;;;;;;5095154;28;20461;-50
2023/10/16 09:04:08;;;;;;;8.57;3.80;;;11.20;99.90;;;;;;5095856;28;20497;-50
2023/10/16 09:06:39;;;;;;;6.70;3.57;;;11.20;99.90;;;;;;5091328;28;20462;-50
2023/10/16 09:09:16;;;;;;;5.27;2.43;;;11.30;99.90;;;;;;5095474;28;20979;-50
2023/10/16 09:11:45;;;;;;;3.37;2.00;;;11.30;99.90;;;;;;5095514;28;20416;-49
2023/10/16 09:14:17;;;;;;;6.17;2.40;;;11.40;48.10;;;;;;5095886;28;20419;-50
2023/10/16 09:16:51;;;;;;;6.43;2.70;;;11.40;94.20;;;;;;5095011;28;20421;-50
2023/10/16 09:19:18;;;;;;;4.33;2.77;;;11.40;1.00;;;;;;5095871;28;20444;-49
2023/10/16 09:21:44;;;;;;;5.57;2.60;;;11.50;1.00;;;;;;5096066;28;20418;-50
2023/10/16 09:24:12;;;;;;;6.03;2.73;;;11.60;99.90;;;;;;5096457;28;20504;-54
2023/10/16 09:26:44;;;;;;;8.60;2.80;;;11.50;99.90;;;;;;5096959;28;20764;-60
2023/10/16 09:29:14;;;;;;;5.53;2.30;;;11.50;99.90;;;;;;5095712;28;20463;-50
2023/10/16 09:31:44;;;;;;;9.07;1.97;;;11.60;99.90;;;;;;5095547;28;20422;-50
2023/10/16 09:34:11;;;;;;;15.30;2.60;;;11.80;99.90;;;;;;5094830;28;20420;-50
2023/10/16 09:36:38;;;;;;;2.40;1.90;;;11.90;99.90;;;;;;5095413;28;20433;-49
2023/10/16 09:39:17;;;;;;;4.63;2.37;;;12.20;99.90;;;;;;5095100;28;20425;-50
2023/10/16 09:41:46;;;;;;;4.83;1.90;;;12.10;46.80;;;;;;5094756;28;20414;-50
2023/10/16 09:44:36;;;;;;;3.27;1.80;;;12.30;38.20;;;;;;5094278;28;20417;-50
2023/10/16 09:47:25;;;;;;;4.57;1.90;;;12.30;24.00;;;;;;5094658;28;20448;-50
2023/10/16 09:49:49;;;;;;;6.27;1.60;;;12.30;45.30;;;;;;5094511;28;20528;-50
2023/10/16 09:52:21;;;;;;;4.83;1.90;;;12.40;23.30;;;;;;5094606;28;20414;-50
2023/10/16 09:54:48;;;;;;;4.00;1.90;;;12.30;14.10;;;;;;5094732;28;20396;-50
2023/10/16 09:57:19;;;;;;;3.27;1.80;;;12.40;94.90;;;;;;5091385;28;20497;-50
2023/10/16 09:59:45;;;;;;;3.77;1.60;;;12.50;75.00;;;;;;5085644;28;20438;-50
2023/10/16 10:02:17;;;;;;;5.97;1.97;;;12.40;1.00;;;;;;5074186;28;20950;-50
2023/10/16 10:05:04;;;;;;;4.00;1.53;;;12.30;1.00;;;;;;5073839;28;20730;-51
2023/10/16 10:07:36;;;;;;;4.90;1.60;;;12.20;1.00;;;;;;5074007;28;20412;-50
2023/10/16 10:12:53;;;;;;;3.50;1.17;;;12.30;1.00;;;;;;5073466;28;20772;-50
2023/10/16 10:15:26;;;;;;;4.87;1.23;;;12.40;1.00;;;;;;5074182;28;20411;-50
2023/10/16 10:17:55;;;;;;;5.30;1.30;;;12.40;1.00;;;;;;5073399;28;20416;-50
2023/10/16 10:20:26;;;;;;;8.23;1.50;;;12.60;1.00;;;;;;5073391;28;20784;-50
2023/10/16 10:22:58;;;;;;;5.00;1.30;;;13.20;1.00;;;;;;5073775;28;20473;-50
2023/10/16 10:25:40;;;;;;;5.07;1.27;;;13.50;1.00;;;;;;5073152;28;20471;-51
2023/10/16 10:28:36;;;;;;;4.90;1.50;;;13.40;1.00;;;;;;5073734;28;20407;-50
2023/10/16 10:31:04;;;;;;;6.10;1.80;;;12.90;1.00;;;;;;5073229;28;20867;-50
2023/10/16 10:33:42;;;;;;;8.50;1.40;;;12.50;1.00;;;;;;5073956;28;20513;-50
2023/10/16 10:36:30;;;;;;;6.77;1.57;;;12.00;1.00;;;;;;5073968;28;20412;-49
2023/10/16 10:42:05;;;;;;;3.87;2.00;;;11.30;1.00;;;;;;5072949;28;20410;-49
2023/10/16 10:44:45;;;;;;;4.80;1.30;;;11.10;1.00;;;;;;5072850;28;20410;-50
2023/10/16 10:47:23;;;;;;;5.43;1.63;;;11.00;1.00;;;;;;5073085;28;20387;-50
2023/10/16 10:49:59;;;;;;;8.40;1.63;;;10.90;9.40;;;;;;5072464;28;20568;-50
2023/10/16 10:52:27;;;;;;;2.93;1.80;;;10.90;36.20;;;;;;5072946;28;20423;-49
2023/10/16 10:55:00;;;;;;;4.07;1.60;;;10.80;31.40;;;;;;5078184;28;20493;-50
2023/10/16 10:57:26;;;;;;;7.57;1.60;;;10.80;26.00;;;;;;5081099;28;20438;-50
2023/10/16 10:59:56;;;;;;;3.63;1.57;;;10.80;22.10;;;;;;5083164;28;20475;-51
2023/10/16 11:04:58;;;;;;;3.73;1.50;;;10.70;37.10;;;;;;5085177;28;20495;-51
2023/10/16 11:07:29;;;;;;;3.37;1.63;;;10.80;79.80;;;;;;5083975;28;20430;-50
2023/10/16 11:09:59;;;;;;;5.80;1.30;;;11.00;81.60;;;;;;5084206;28;20469;-50
2023/10/16 11:12:25;;;;;;;1.90;1.57;;;11.40;49.30;;;;;;5084696;28;20443;-49
2023/10/16 11:14:52;;;;;;;9.67;1.80;;;11.60;25.40;;;;;;5074500;28;20835;-49
2023/10/16 11:17:35;;;;;;;6.10;1.50;;;11.90;18.70;;;;;;5072017;28;20185;-49
2023/10/16 11:22:45;;;;;;;3.27;1.73;;;12.00;1.00;;;;;;5072281;28;20485;-50
2023/10/16 11:25:14;;;;;;;8.00;2.57;;;11.90;1.00;;;;;;5071966;28;20472;-51
2023/10/16 11:27:44;;;;;;;4.80;1.63;;;11.90;1.00;;;;;;5072363;28;20921;-51
2023/10/16 11:30:12;;;;;;;3.93;1.37;;;11.90;1.00;;;;;;5072170;28;20824;-56
2023/10/16 11:32:42;;;;;;;7.93;2.30;;;11.90;1.00;;;;;;5072860;28;20578;-50
2023/10/16 11:35:15;;;;;;;4.27;1.67;;;11.90;1.00;;;;;;5072778;28;20745;-49
2023/10/16 11:37:43;;;;;;;4.83;1.60;;;11.90;1.00;;;;;;5072010;28;20762;-51
2023/10/16 11:40:18;;;;;;;5.37;1.80;;;12.00;1.00;;;;;;5072211;28;20430;-50
2023/10/16 11:42:45;;;;;;;6.77;1.90;;;12.30;1.00;;;;;;5072223;28;20406;-50
2023/10/16 11:45:18;;;;;;;5.87;1.60;;;12.60;1.00;;;;;;5072069;28;20419;-51
2023/10/16 11:47:44;;;;;;;7.67;1.37;;;13.00;1.00;;;;;;5072182;28;20461;-51
2023/10/16 11:50:17;;;;;;;4.70;1.33;;;13.20;1.00;;;;;;5072010;28;20471;-51
2023/10/16 11:52:43;;;;;;;5.37;1.50;;;13.30;1.00;;;;;;5072297;28;20181;-53
2023/10/16 11:55:09;;;;;;;10.40;1.40;;;13.30;1.00;;;;;;5072284;28;20422;-50
2023/10/16 11:57:34;;;;;;;5.90;1.83;;;13.30;1.00;;;;;;5071810;28;20436;-50
2023/10/16 12:00:17;;;;;;;6.10;1.80;;;13.00;1.00;;;;;;5071834;28;20200;-50
2023/10/16 12:02:46;;;;;;;5.60;1.23;;;12.50;1.00;;;;;;5072249;28;20633;-51
2023/10/16 12:05:12;;;;;;;2.27;1.20;;;12.10;1.00;;;;;;5071645;28;20936;-50
2023/10/16 12:07:43;;;;;;;8.43;1.50;;;11.80;1.00;;;;;;5072483;28;20420;-50
2023/10/16 12:10:15;;;;;;;2.03;1.10;;;11.70;1.00;;;;;;5072799;28;20217;-51
2023/10/16 12:12:40;;;;;;;3.50;1.50;;;11.70;1.00;;;;;;5072805;28;20419;-50
2023/10/16 12:15:09;;;;;;;3.70;1.40;;;11.70;1.00;;;;;;5071409;28;20431;-50
2023/10/16 12:17:36;;;;;;;3.27;1.50;;;12.30;1.00;;;;;;5072504;28;20184;-50
2023/10/16 12:20:10;;;;;;;7.23;1.40;;;13.20;1.00;;;;;;5072075;28;20452;-51
2023/10/16 12:22:39;;;;;;;3.87;1.27;;;14.00;1.00;;;;;;5072138;28;20893;-51
2023/10/16 12:25:09;;;;;;;5.87;1.53;;;15.10;1.00;;;;;;5071479;28;20471;-51
2023/10/16 12:27:36;;;;;;;5.07;1.83;;;15.40;1.00;;;;;;5072093;28;20420;-53
2023/10/16 12:30:03;;;;;;;7.00;1.43;;;15.10;1.00;;;;;;5071126;28;20947;-51
2023/10/16 12:32:29;;;;;;;4.03;1.20;;;14.70;1.00;;;;;;5071578;28;20850;-51
2023/10/16 12:34:57;;;;;;;5.90;1.53;;;14.30;1.00;;;;;;5071387;28;20455;-51
2023/10/16 12:37:23;;;;;;;8.60;1.23;;;13.90;1.00;;;;;;5071363;28;20187;-51
2023/10/16 12:39:52;;;;;;;2.93;1.13;;;13.70;1.00;;;;;;5071492;28;20423;-51
2023/10/16 12:42:18;;;;;;;7.80;1.60;;;13.60;1.00;;;;;;5070911;28;20190;-51
2023/10/16 12:44:44;;;;;;;5.20;1.53;;;13.50;1.00;;;;;;5071217;28;20422;-52
2023/10/16 12:47:11;;;;;;;12.13;2.13;;;13.40;1.00;;;;;;5071688;28;20448;-51
2023/10/16 12:49:37;;;;;;;3.47;1.50;;;13.40;1.00;;;;;;5071458;28;20471;-52
2023/10/16 12:52:02;;;;;;;4.90;1.40;;;13.70;1.00;;;;;;5071858;28;20423;-51
2023/10/16 12:54:28;;;;;;;5.00;1.30;;;14.40;1.00;;;;;;5071414;28;20529;-51
2023/10/16 12:56:54;;;;;;;5.60;1.30;;;15.10;1.00;;;;;;5070549;28;20188;-51
2023/10/16 12:59:20;;;;;;;4.43;1.50;;;15.20;1.00;;;;;;5071376;28;20192;-51
2023/10/16 13:01:49;;;;;;;4.30;1.30;;;15.10;1.00;;;;;;5071754;28;20166;-52
2023/10/16 13:04:16;;;;;;;5.27;1.10;;;15.00;1.00;;;;;;5070969;28;20777;-52
2023/10/16 13:06:43;;;;;;;6.80;1.17;;;15.40;1.00;;;;;;5070841;28;20417;-53
2023/10/16 13:09:19;;;;;;;6.70;1.70;;;15.80;1.00;;;;;;5071140;28;20501;-51
2023/10/16 13:11:46;;;;;;;2.87;1.40;;;16.10;1.00;;;;;;5071492;28;20424;-51
2023/10/16 13:14:12;;;;;;;7.30;1.23;;;16.10;1.00;;;;;;5073695;28;20418;-54
2023/10/16 13:16:42;;;;;;;5.80;1.60;;;15.60;1.00;;;;;;5074693;28;20421;-51
2023/10/16 13:19:11;;;;;;;2.57;1.10;;;15.10;1.00;;;;;;5075018;28;20407;-51
2023/10/16 13:21:41;;;;;;;6.07;1.10;;;14.60;1.00;;;;;;5073867;28;20424;-51
2023/10/16 13:24:13;;;;;;;4.67;1.30;;;14.30;1.00;;;;;;5074537;28;20508;-51
2023/10/16 13:26:40;;;;;;;4.97;1.50;;;14.20;1.00;;;;;;5074628;28;20425;-52
2023/10/16 13:29:08;;;;;;;3.63;1.17;;;14.50;1.00;;;;;;5074959;28;20461;-51
2023/10/16 13:31:40;;;;;;;2.90;1.20;;;14.80;1.00;;;;;;5075072;28;20948;-51
2023/10/16 13:34:10;;;;;;;3.57;1.20;;;15.00;1.00;;;;;;5077820;28;20436;-51
2023/10/16 13:36:37;;;;;;;6.67;1.47;;;14.90;1.00;;;;;;5084728;28;20444;-52
2023/10/16 13:39:08;;;;;;;6.40;1.50;;;14.70;1.00;;;;;;5086402;28;20435;-51
2023/10/16 13:41:55;;;;;;;7.83;1.40;;;14.40;1.00;;;;;;5084204;28;20436;-51
2023/10/16 13:44:29;;;;;;;5.50;1.30;;;14.50;1.00;;;;;;5085247;28;20537;-51
2023/10/16 13:46:55;;;;;;;3.43;1.20;;;14.10;1.00;;;;;;5085815;28;20444;-56
2023/10/16 13:49:24;;;;;;;4.20;1.07;;;13.80;1.00;;;;;;5086110;28;20479;-51
2023/10/16 13:51:52;;;;;;;6.17;1.00;;;13.40;1.00;;;;;;5084033;28;20443;-52
2023/10/16 13:54:18;;;;;;;6.63;1.10;;;12.80;1.00;;;;;;5085822;28;20446;-53
2023/10/16 13:56:48;;;;;;;5.03;1.10;;;12.40;1.00;;;;;;5084753;28;20438;-51
2023/10/16 13:59:15;;;;;;;4.10;1.23;;;12.30;1.00;;;;;;5084615;28;20197;-51
2023/10/16 14:01:42;;;;;;;4.10;1.20;;;12.30;1.00;;;;;;5085792;28;20439;-51
2023/10/16 14:04:15;;;;;;;2.10;1.00;;;12.60;1.00;;;;;;5086271;28;20444;-52
2023/10/16 14:06:54;;;;;;;3.60;1.30;;;13.10;1.00;;;;;;5083072;28;20497;-58
2023/10/16 14:09:32;;;;;;;6.30;1.60;;;13.60;1.00;;;;;;5085513;28;20467;-51
2023/10/16 14:11:59;;;;;;;8.30;1.20;;;14.00;1.00;;;;;;5083152;28;20600;-51
2023/10/16 14:14:27;;;;;;;6.23;1.10;;;14.20;1.00;;;;;;5085867;28;20435;-51
2023/10/16 14:17:02;;;;;;;4.70;1.50;;;13.90;1.00;;;;;;5084455;28;21029;-51
2023/10/16 14:19:32;;;;;;;5.73;1.30;;;13.40;1.00;;;;;;5083382;28;20431;-50
2023/10/16 14:21:59;;;;;;;3.20;1.30;;;13.00;1.00;;;;;;5085275;28;20445;-50
2023/10/16 14:24:26;;;;;;;3.47;1.40;;;12.80;1.00;;;;;;5086199;28;20495;-52
2023/10/16 14:26:55;;;;;;;2.70;1.00;;;12.80;1.00;;;;;;5093871;28;20414;-52
2023/10/16 14:29:21;;;;;;;5.20;1.20;;;12.70;1.00;;;;;;5095017;28;20470;-51
2023/10/16 14:31:51;;;;;;;6.33;1.37;;;12.50;1.00;;;;;;5094470;28;20422;-51
2023/10/16 14:34:23;;;;;;;6.53;1.40;;;12.20;1.00;;;;;;5094513;28;20405;-51
2023/10/16 14:36:51;;;;;;;7.70;1.50;;;12.00;1.00;;;;;;5093998;28;20434;-50
2023/10/16 14:39:16;;;;;;;3.27;1.30;;;11.70;1.00;;;;;;5093659;28;20525;-49
2023/10/16 14:41:42;;;;;;;3.00;1.27;;;11.70;1.00;;;;;;5093690;28;20454;-50
2023/10/16 14:44:09;;;;;;;6.37;1.40;;;11.50;1.00;;;;;;5094397;28;20241;-51
2023/10/16 14:46:36;;;;;;;4.90;1.33;;;11.40;1.00;;;;;;5093259;28;20574;-50
2023/10/16 14:49:04;;;;;;;4.20;1.13;;;11.40;1.00;;;;;;5093731;28;20536;-50
2023/10/16 14:51:30;;;;;;;8.53;1.40;;;11.30;1.00;;;;;;5093893;28;20425;-50
2023/10/16 14:53:56;;;;;;;3.23;1.40;;;11.10;1.00;;;;;;5093081;28;20415;-54
2023/10/16 14:56:22;;;;;;;4.67;1.30;;;11.00;1.00;;;;;;5093038;28;20414;-49
2023/10/16 14:58:51;;;;;;;3.90;1.40;;;11.00;1.00;;;;;;5093501;28;20457;-50
2023/10/16 15:01:19;;;;;;;4.73;1.40;;;10.90;1.00;;;;;;5092967;28;20802;-49
2023/10/16 15:03:46;;;;;;;3.77;1.33;;;10.90;1.00;;;;;;5092950;28;20836;-51
2023/10/16 15:06:13;;;;;;;6.53;1.30;;;10.90;1.00;;;;;;5093058;28;20497;-50
2023/10/16 15:08:43;;;;;;;3.10;1.40;;;10.90;1.00;;;;;;5093236;28;20465;-49
2023/10/16 15:11:12;;;;;;;2.20;1.53;;;10.90;1.00;;;;;;5092995;28;20433;-49
2023/10/16 15:13:39;;;;;;;5.03;1.40;;;10.90;1.00;;;;;;5093255;28;20528;-49